sensor_id;sensor_type;location;lat;lon;timestamp;temperature;humidity
45319;DHT22;31057;48.498;32.260;2023-06-19T00:01:11;19.30;99.90
45319;DHT22;31057;48.498;32.260;2023-06-19T00:03:13;19.30;99.90
45319;DHT22;31057;48.498;32.260;2023-06-19T00:05:15;19.30;99.90
45319;DHT22;31057;48.498;32.260;2023-06-19T00:07:17;19.20;99.90
45319;DHT22;31057;48.498;32.260;2023-06-19T00:09:19;19.10;99.90
45319;DHT22;31057;48.498;32.260;2023-06-19T00:11:20;19.00;99.90
45319;DHT22;31057;48.498;32.260;2023-06-19T00:13:23;18.90;99.90
45319;DHT22;31057;48.498;32.260;2023-06-19T00:15:24;19.00;99.90
45319;DHT22;31057;48.498;32.260;2023-06-19T00:17:27;19.00;99.90
45319;DHT22;31057;48.498;32.260;2023-06-19T00:19:29;19.10;99.90
45319;DHT22;31057;48.498;32.260;2023-06-19T00:21:31;19.20;99.90
45319;DHT22;31057;48.498;32.260;2023-06-19T00:23:33;19.20;99.90
45319;DHT22;31057;48.498;32.260;2023-06-19T00:25:35;19.20;99.90
45319;DHT22;31057;48.498;32.260;2023-06-19T00:27:37;19.20;99.90
45319;DHT22;31057;48.498;32.260;2023-06-19T00:29:39;19.10;99.90
45319;DHT22;31057;48.498;32.260;2023-06-19T00:31:41;19.10;99.90
45319;DHT22;31057;48.498;32.260;2023-06-19T00:33:43;19.10;99.90
45319;DHT22;31057;48.498;32.260;2023-06-19T00:35:45;19.00;99.90
45319;DHT22;31057;48.498;32.260;2023-06-19T00:37:47;19.00;99.90
45319;DHT22;31057;48.498;32.260;2023-06-19T00:39:49;19.10;99.90
45319;DHT22;31057;48.498;32.260;2023-06-19T00:41:54;19.00;99.90
45319;DHT22;31057;48.498;32.260;2023-06-19T00:43:56;18.80;99.90
45319;DHT22;31057;48.498;32.260;2023-06-19T00:45:58;18.90;99.90
45319;DHT22;31057;48.498;32.260;2023-06-19T00:48:00;18.80;99.90
45319;DHT22;31057;48.498;32.260;2023-06-19T00:50:03;18.80;99.90
45319;DHT22;31057;48.498;32.260;2023-06-19T00:52:05;18.80;99.90
45319;DHT22;31057;48.498;32.260;2023-06-19T00:54:06;18.70;99.90
45319;DHT22;31057;48.498;32.260;2023-06-19T00:56:09;18.70;99.90
45319;DHT22;31057;48.498;32.260;2023-06-19T00:58:11;18.60;99.90
45319;DHT22;31057;48.498;32.260;2023-06-19T01:00:13;18.60;99.90
45319;DHT22;31057;48.498;32.260;2023-06-19T01:02:15;18.60;99.90
45319;DHT22;31057;48.498;32.260;2023-06-19T01:04:17;18.50;99.90
45319;DHT22;31057;48.498;32.260;2023-06-19T01:06:23;18.50;99.90
45319;DHT22;31057;48.498;32.260;2023-06-19T01:10:29;18.40;99.90
45319;DHT22;31057;48.498;32.260;2023-06-19T01:12:33;18.40;99.90
45319;DHT22;31057;48.498;32.260;2023-06-19T01:14:38;18.50;99.90
45319;DHT22;31057;48.498;32.260;2023-06-19T01:16:42;18.50;99.90
45319;DHT22;31057;48.498;32.260;2023-06-19T01:18:45;18.50;99.90
45319;DHT22;31057;48.498;32.260;2023-06-19T01:20:47;18.50;99.90
45319;DHT22;31057;48.498;32.260;2023-06-19T01:22:48;18.50;99.90
45319;DHT22;31057;48.498;32.260;2023-06-19T01:24:50;18.60;99.90
45319;DHT22;31057;48.498;32.260;2023-06-19T01:26:52;18.50;99.90
45319;DHT22;31057;48.498;32.260;2023-06-19T01:28:54;18.50;99.90
45319;DHT22;31057;48.498;32.260;2023-06-19T01:30:56;18.50;99.90
45319;DHT22;31057;48.498;32.260;2023-06-19T01:33:02;18.60;99.90
45319;DHT22;31057;48.498;32.260;2023-06-19T01:35:06;18.50;99.90
45319;DHT22;31057;48.498;32.260;2023-06-19T01:37:10;18.50;99.90
45319;DHT22;31057;48.498;32.260;2023-06-19T01:39:12;18.50;99.90
45319;DHT22;31057;48.498;32.260;2023-06-19T01:41:14;18.60;99.90
45319;DHT22;31057;48.498;32.260;2023-06-19T01:43:16;18.60;99.90
45319;DHT22;31057;48.498;32.260;2023-06-19T01:45:19;18.60;99.90
45319;DHT22;31057;48.498;32.260;2023-06-19T01:47:21;18.50;99.90
45319;DHT22;31057;48.498;32.260;2023-06-19T01:49:23;18.40;99.90
45319;DHT22;31057;48.498;32.260;2023-06-19T01:51:25;18.50;99.90
45319;DHT22;31057;48.498;32.260;2023-06-19T01:53:27;18.60;99.90
45319;DHT22;31057;48.498;32.260;2023-06-19T01:55:30;18.60;99.90
45319;DHT22;31057;48.498;32.260;2023-06-19T01:57:32;18.70;99.90
45319;DHT22;31057;48.498;32.260;2023-06-19T01:59:34;18.70;99.90
45319;DHT22;31057;48.498;32.260;2023-06-19T02:01:37;18.80;99.90
45319;DHT22;31057;48.498;32.260;2023-06-19T02:03:38;18.80;99.90
45319;DHT22;31057;48.498;32.260;2023-06-19T02:05:40;18.90;99.90
45319;DHT22;31057;48.498;32.260;2023-06-19T02:07:42;19.00;99.90
45319;DHT22;31057;48.498;32.260;2023-06-19T02:09:44;19.00;99.90
45319;DHT22;31057;48.498;32.260;2023-06-19T02:11:46;18.90;99.90
45319;DHT22;31057;48.498;32.260;2023-06-19T02:13:47;18.80;99.90
45319;DHT22;31057;48.498;32.260;2023-06-19T02:15:50;18.70;99.90
45319;DHT22;31057;48.498;32.260;2023-06-19T02:17:53;18.70;99.90
45319;DHT22;31057;48.498;32.260;2023-06-19T02:19:56;18.60;99.90
45319;DHT22;31057;48.498;32.260;2023-06-19T02:21:58;18.70;99.90
45319;DHT22;31057;48.498;32.260;2023-06-19T02:24:00;18.80;99.90
45319;DHT22;31057;48.498;32.260;2023-06-19T02:26:02;18.80;99.90
45319;DHT22;31057;48.498;32.260;2023-06-19T02:28:04;18.80;99.90
45319;DHT22;31057;48.498;32.260;2023-06-19T02:30:06;18.90;99.90
45319;DHT22;31057;48.498;32.260;2023-06-19T02:32:08;19.00;99.90
45319;DHT22;31057;48.498;32.260;2023-06-19T02:34:10;19.00;99.90
45319;DHT22;31057;48.498;32.260;2023-06-19T02:36:12;18.90;99.90
45319;DHT22;31057;48.498;32.260;2023-06-19T02:38:14;18.80;99.90
45319;DHT22;31057;48.498;32.260;2023-06-19T02:40:16;18.80;99.90
45319;DHT22;31057;48.498;32.260;2023-06-19T02:42:18;18.90;99.90
45319;DHT22;31057;48.498;32.260;2023-06-19T02:44:20;18.90;99.90
45319;DHT22;31057;48.498;32.260;2023-06-19T02:46:21;18.90;99.90
45319;DHT22;31057;48.498;32.260;2023-06-19T02:48:23;19.00;99.90
45319;DHT22;31057;48.498;32.260;2023-06-19T02:50:25;18.90;99.90
45319;DHT22;31057;48.498;32.260;2023-06-19T02:52:27;18.80;99.90
45319;DHT22;31057;48.498;32.260;2023-06-19T02:54:29;18.90;99.90
45319;DHT22;31057;48.498;32.260;2023-06-19T02:56:31;19.10;99.90
45319;DHT22;31057;48.498;32.260;2023-06-19T02:58:33;19.00;99.90
45319;DHT22;31057;48.498;32.260;2023-06-19T03:00:35;19.70;99.90
45319;DHT22;31057;48.498;32.260;2023-06-19T03:02:37;20.10;99.90
45319;DHT22;31057;48.498;32.260;2023-06-19T03:04:43;20.10;99.90
45319;DHT22;31057;48.498;32.260;2023-06-19T03:06:45;20.50;99.90
45319;DHT22;31057;48.498;32.260;2023-06-19T03:08:47;20.60;99.90
45319;DHT22;31057;48.498;32.260;2023-06-19T03:10:49;19.90;99.90
45319;DHT22;31057;48.498;32.260;2023-06-19T03:12:51;19.80;99.90
45319;DHT22;31057;48.498;32.260;2023-06-19T03:14:53;19.60;99.90
45319;DHT22;31057;48.498;32.260;2023-06-19T03:16:55;19.60;99.90
45319;DHT22;31057;48.498;32.260;2023-06-19T03:18:56;19.60;99.90
45319;DHT22;31057;48.498;32.260;2023-06-19T03:20:58;19.40;99.90
45319;DHT22;31057;48.498;32.260;2023-06-19T03:23:00;19.30;99.90
45319;DHT22;31057;48.498;32.260;2023-06-19T03:25:02;19.10;99.90
45319;DHT22;31057;48.498;32.260;2023-06-19T03:27:04;19.10;99.90
45319;DHT22;31057;48.498;32.260;2023-06-19T03:29:06;18.90;99.90
45319;DHT22;31057;48.498;32.260;2023-06-19T03:31:08;18.70;99.90
45319;DHT22;31057;48.498;32.260;2023-06-19T03:33:10;18.60;99.90
45319;DHT22;31057;48.498;32.260;2023-06-19T03:35:12;18.40;99.90
45319;DHT22;31057;48.498;32.260;2023-06-19T03:37:13;18.60;99.90
45319;DHT22;31057;48.498;32.260;2023-06-19T03:39:15;18.70;99.90
45319;DHT22;31057;48.498;32.260;2023-06-19T03:41:17;18.60;99.90
45319;DHT22;31057;48.498;32.260;2023-06-19T03:43:19;18.50;99.90
45319;DHT22;31057;48.498;32.260;2023-06-19T03:45:21;18.60;99.90
45319;DHT22;31057;48.498;32.260;2023-06-19T03:47:22;18.50;99.90
45319;DHT22;31057;48.498;32.260;2023-06-19T03:49:24;18.20;99.90
45319;DHT22;31057;48.498;32.260;2023-06-19T03:51:26;18.20;99.90
45319;DHT22;31057;48.498;32.260;2023-06-19T03:53:30;18.30;99.90
45319;DHT22;31057;48.498;32.260;2023-06-19T03:55:32;18.20;99.90
45319;DHT22;31057;48.498;32.260;2023-06-19T03:57:34;18.30;99.90
45319;DHT22;31057;48.498;32.260;2023-06-19T03:59:35;18.40;99.90
45319;DHT22;31057;48.498;32.260;2023-06-19T04:01:37;18.40;99.90
45319;DHT22;31057;48.498;32.260;2023-06-19T04:03:39;18.30;99.90
45319;DHT22;31057;48.498;32.260;2023-06-19T04:05:42;18.50;99.90
45319;DHT22;31057;48.498;32.260;2023-06-19T04:07:44;18.70;99.90
45319;DHT22;31057;48.498;32.260;2023-06-19T04:09:46;18.90;99.90
45319;DHT22;31057;48.498;32.260;2023-06-19T04:11:48;19.00;99.90
45319;DHT22;31057;48.498;32.260;2023-06-19T04:13:50;18.90;99.90
45319;DHT22;31057;48.498;32.260;2023-06-19T04:15:52;19.10;99.90
45319;DHT22;31057;48.498;32.260;2023-06-19T04:17:53;19.20;99.90
45319;DHT22;31057;48.498;32.260;2023-06-19T04:19:55;19.20;99.90
45319;DHT22;31057;48.498;32.260;2023-06-19T04:21:57;19.50;99.90
45319;DHT22;31057;48.498;32.260;2023-06-19T04:23:59;19.40;99.90
45319;DHT22;31057;48.498;32.260;2023-06-19T04:26:01;19.60;99.90
45319;DHT22;31057;48.498;32.260;2023-06-19T04:28:03;19.60;99.90
45319;DHT22;31057;48.498;32.260;2023-06-19T04:30:05;19.50;99.90
45319;DHT22;31057;48.498;32.260;2023-06-19T04:32:10;19.40;99.90
45319;DHT22;31057;48.498;32.260;2023-06-19T04:34:15;19.30;99.90
45319;DHT22;31057;48.498;32.260;2023-06-19T04:36:17;19.10;99.90
45319;DHT22;31057;48.498;32.260;2023-06-19T04:38:19;19.40;99.90
45319;DHT22;31057;48.498;32.260;2023-06-19T04:40:25;19.40;99.90
45319;DHT22;31057;48.498;32.260;2023-06-19T04:42:27;19.40;99.90
45319;DHT22;31057;48.498;32.260;2023-06-19T04:44:29;19.30;99.90
45319;DHT22;31057;48.498;32.260;2023-06-19T04:46:35;19.30;99.90
45319;DHT22;31057;48.498;32.260;2023-06-19T04:48:39;19.40;99.90
45319;DHT22;31057;48.498;32.260;2023-06-19T04:50:42;19.20;99.90
45319;DHT22;31057;48.498;32.260;2023-06-19T04:52:44;19.40;99.90
45319;DHT22;31057;48.498;32.260;2023-06-19T04:54:45;19.40;99.90
45319;DHT22;31057;48.498;32.260;2023-06-19T04:56:49;19.40;99.90
45319;DHT22;31057;48.498;32.260;2023-06-19T04:58:51;19.50;99.90
45319;DHT22;31057;48.498;32.260;2023-06-19T05:00:53;19.60;99.90
45319;DHT22;31057;48.498;32.260;2023-06-19T05:02:56;19.70;99.90
45319;DHT22;31057;48.498;32.260;2023-06-19T05:05:01;19.90;99.90
45319;DHT22;31057;48.498;32.260;2023-06-19T05:07:05;20.20;99.90
45319;DHT22;31057;48.498;32.260;2023-06-19T05:09:07;20.50;99.90
45319;DHT22;31057;48.498;32.260;2023-06-19T05:11:09;20.70;99.90
45319;DHT22;31057;48.498;32.260;2023-06-19T05:13:11;20.60;99.90
45319;DHT22;31057;48.498;32.260;2023-06-19T05:15:13;20.90;99.90
45319;DHT22;31057;48.498;32.260;2023-06-19T05:17:14;21.50;99.90
45319;DHT22;31057;48.498;32.260;2023-06-19T05:19:16;21.50;99.90
45319;DHT22;31057;48.498;32.260;2023-06-19T05:21:18;21.50;99.90
45319;DHT22;31057;48.498;32.260;2023-06-19T05:23:20;21.60;99.90
45319;DHT22;31057;48.498;32.260;2023-06-19T05:25:22;21.80;99.90
45319;DHT22;31057;48.498;32.260;2023-06-19T05:27:24;22.10;99.90
45319;DHT22;31057;48.498;32.260;2023-06-19T05:29:26;22.40;99.90
45319;DHT22;31057;48.498;32.260;2023-06-19T05:31:28;22.80;99.90
45319;DHT22;31057;48.498;32.260;2023-06-19T05:33:30;23.10;99.90
45319;DHT22;31057;48.498;32.260;2023-06-19T05:35:32;23.20;99.90
45319;DHT22;31057;48.498;32.260;2023-06-19T05:37:33;23.50;99.90
45319;DHT22;31057;48.498;32.260;2023-06-19T05:39:37;23.40;99.90
45319;DHT22;31057;48.498;32.260;2023-06-19T05:41:39;23.20;99.90
45319;DHT22;31057;48.498;32.260;2023-06-19T05:43:41;23.10;99.90
45319;DHT22;31057;48.498;32.260;2023-06-19T05:45:43;23.20;99.90
45319;DHT22;31057;48.498;32.260;2023-06-19T05:47:45;23.50;99.90
45319;DHT22;31057;48.498;32.260;2023-06-19T05:49:47;23.70;99.90
45319;DHT22;31057;48.498;32.260;2023-06-19T05:51:50;23.80;99.90
45319;DHT22;31057;48.498;32.260;2023-06-19T05:53:52;23.90;99.90
45319;DHT22;31057;48.498;32.260;2023-06-19T05:55:53;23.80;99.90
45319;DHT22;31057;48.498;32.260;2023-06-19T05:57:55;23.90;99.90
45319;DHT22;31057;48.498;32.260;2023-06-19T05:59:57;24.20;99.90
45319;DHT22;31057;48.498;32.260;2023-06-19T06:01:59;24.30;99.90
45319;DHT22;31057;48.498;32.260;2023-06-19T06:04:01;24.50;99.90
45319;DHT22;31057;48.498;32.260;2023-06-19T06:06:03;24.60;99.90
45319;DHT22;31057;48.498;32.260;2023-06-19T06:08:05;24.60;99.90
45319;DHT22;31057;48.498;32.260;2023-06-19T06:10:08;24.70;99.90
45319;DHT22;31057;48.498;32.260;2023-06-19T06:12:10;24.80;99.90
45319;DHT22;31057;48.498;32.260;2023-06-19T06:14:13;24.90;99.90
45319;DHT22;31057;48.498;32.260;2023-06-19T06:16:15;24.80;99.90
45319;DHT22;31057;48.498;32.260;2023-06-19T06:18:17;24.90;99.90
45319;DHT22;31057;48.498;32.260;2023-06-19T06:20:19;25.10;99.90
45319;DHT22;31057;48.498;32.260;2023-06-19T06:22:21;25.20;99.90
45319;DHT22;31057;48.498;32.260;2023-06-19T06:24:22;25.20;99.90
45319;DHT22;31057;48.498;32.260;2023-06-19T06:26:24;25.20;99.90
45319;DHT22;31057;48.498;32.260;2023-06-19T06:28:26;25.40;99.90
45319;DHT22;31057;48.498;32.260;2023-06-19T06:30:28;25.30;99.90
45319;DHT22;31057;48.498;32.260;2023-06-19T06:32:30;25.30;99.90
45319;DHT22;31057;48.498;32.260;2023-06-19T06:34:35;25.10;99.90
45319;DHT22;31057;48.498;32.260;2023-06-19T06:36:37;25.20;99.90
45319;DHT22;31057;48.498;32.260;2023-06-19T06:38:50;25.30;99.90
45319;DHT22;31057;48.498;32.260;2023-06-19T06:40:51;25.40;99.90
45319;DHT22;31057;48.498;32.260;2023-06-19T06:42:53;25.30;99.90
45319;DHT22;31057;48.498;32.260;2023-06-19T06:44:55;25.40;99.90
45319;DHT22;31057;48.498;32.260;2023-06-19T06:46:57;25.30;99.90
45319;DHT22;31057;48.498;32.260;2023-06-19T06:48:59;25.30;99.90
45319;DHT22;31057;48.498;32.260;2023-06-19T06:51:00;25.30;99.90
45319;DHT22;31057;48.498;32.260;2023-06-19T06:53:02;25.60;99.90
45319;DHT22;31057;48.498;32.260;2023-06-19T06:55:04;25.60;99.90
45319;DHT22;31057;48.498;32.260;2023-06-19T06:57:06;25.30;99.90
45319;DHT22;31057;48.498;32.260;2023-06-19T06:59:08;25.30;99.90
45319;DHT22;31057;48.498;32.260;2023-06-19T07:01:10;25.40;99.90
45319;DHT22;31057;48.498;32.260;2023-06-19T07:03:12;25.40;99.90
45319;DHT22;31057;48.498;32.260;2023-06-19T07:05:14;25.40;99.90
45319;DHT22;31057;48.498;32.260;2023-06-19T07:07:16;25.40;99.90
45319;DHT22;31057;48.498;32.260;2023-06-19T07:09:18;25.40;99.90
45319;DHT22;31057;48.498;32.260;2023-06-19T07:11:20;25.50;99.90
45319;DHT22;31057;48.498;32.260;2023-06-19T07:13:22;25.70;99.90
45319;DHT22;31057;48.498;32.260;2023-06-19T07:15:24;25.80;99.90
45319;DHT22;31057;48.498;32.260;2023-06-19T07:17:26;25.90;99.90
45319;DHT22;31057;48.498;32.260;2023-06-19T07:19:28;25.90;99.90
45319;DHT22;31057;48.498;32.260;2023-06-19T07:21:31;26.10;99.90
45319;DHT22;31057;48.498;32.260;2023-06-19T07:23:33;25.90;99.90
45319;DHT22;31057;48.498;32.260;2023-06-19T07:25:38;25.60;99.90
45319;DHT22;31057;48.498;32.260;2023-06-19T07:27:40;25.80;99.90
45319;DHT22;31057;48.498;32.260;2023-06-19T07:29:43;25.70;99.90
45319;DHT22;31057;48.498;32.260;2023-06-19T07:31:45;25.80;99.90
45319;DHT22;31057;48.498;32.260;2023-06-19T07:33:47;26.10;99.90
45319;DHT22;31057;48.498;32.260;2023-06-19T07:35:49;26.00;99.90
45319;DHT22;31057;48.498;32.260;2023-06-19T07:37:50;25.80;99.90
45319;DHT22;31057;48.498;32.260;2023-06-19T07:39:52;25.70;99.90
45319;DHT22;31057;48.498;32.260;2023-06-19T07:41:54;25.40;99.90
45319;DHT22;31057;48.498;32.260;2023-06-19T07:43:56;25.90;99.90
45319;DHT22;31057;48.498;32.260;2023-06-19T07:45:59;26.10;99.90
45319;DHT22;31057;48.498;32.260;2023-06-19T07:48:01;25.60;99.90
45319;DHT22;31057;48.498;32.260;2023-06-19T07:50:04;25.90;99.90
45319;DHT22;31057;48.498;32.260;2023-06-19T07:52:06;26.10;99.90
45319;DHT22;31057;48.498;32.260;2023-06-19T07:54:10;26.20;99.90
45319;DHT22;31057;48.498;32.260;2023-06-19T07:56:12;25.70;99.90
45319;DHT22;31057;48.498;32.260;2023-06-19T07:58:14;25.90;99.90
45319;DHT22;31057;48.498;32.260;2023-06-19T08:00:16;25.90;99.90
45319;DHT22;31057;48.498;32.260;2023-06-19T08:02:18;26.00;99.90
45319;DHT22;31057;48.498;32.260;2023-06-19T08:04:20;26.00;99.90
45319;DHT22;31057;48.498;32.260;2023-06-19T08:06:23;26.00;99.90
45319;DHT22;31057;48.498;32.260;2023-06-19T08:08:24;26.10;99.90
45319;DHT22;31057;48.498;32.260;2023-06-19T08:10:27;25.80;99.90
45319;DHT22;31057;48.498;32.260;2023-06-19T08:12:30;25.90;99.90
45319;DHT22;31057;48.498;32.260;2023-06-19T08:14:31;26.10;99.90
45319;DHT22;31057;48.498;32.260;2023-06-19T08:16:33;26.30;99.90
45319;DHT22;31057;48.498;32.260;2023-06-19T08:18:35;26.40;99.90
45319;DHT22;31057;48.498;32.260;2023-06-19T08:20:37;26.40;99.90
45319;DHT22;31057;48.498;32.260;2023-06-19T08:22:39;26.30;99.90
45319;DHT22;31057;48.498;32.260;2023-06-19T08:24:41;26.40;99.90
45319;DHT22;31057;48.498;32.260;2023-06-19T08:26:43;26.40;99.90
45319;DHT22;31057;48.498;32.260;2023-06-19T08:28:45;26.40;99.90
45319;DHT22;31057;48.498;32.260;2023-06-19T08:30:47;26.20;99.90
45319;DHT22;31057;48.498;32.260;2023-06-19T08:32:49;26.30;99.90
45319;DHT22;31057;48.498;32.260;2023-06-19T08:34:50;26.00;99.90
45319;DHT22;31057;48.498;32.260;2023-06-19T08:36:53;26.40;99.90
45319;DHT22;31057;48.498;32.260;2023-06-19T08:38:54;26.20;99.90
45319;DHT22;31057;48.498;32.260;2023-06-19T08:40:56;25.90;99.90
45319;DHT22;31057;48.498;32.260;2023-06-19T08:42:58;25.70;99.90
45319;DHT22;31057;48.498;32.260;2023-06-19T08:45:00;26.00;99.90
45319;DHT22;31057;48.498;32.260;2023-06-19T08:47:02;26.30;99.90
45319;DHT22;31057;48.498;32.260;2023-06-19T08:49:05;26.50;99.90
45319;DHT22;31057;48.498;32.260;2023-06-19T08:51:07;26.60;99.90
45319;DHT22;31057;48.498;32.260;2023-06-19T08:53:11;26.40;99.90
45319;DHT22;31057;48.498;32.260;2023-06-19T08:55:13;26.30;99.90
45319;DHT22;31057;48.498;32.260;2023-06-19T08:57:15;25.90;99.90
45319;DHT22;31057;48.498;32.260;2023-06-19T08:59:17;25.80;99.90
45319;DHT22;31057;48.498;32.260;2023-06-19T09:01:19;25.80;99.90
45319;DHT22;31057;48.498;32.260;2023-06-19T09:03:21;26.00;99.90
45319;DHT22;31057;48.498;32.260;2023-06-19T09:05:23;26.30;99.90
45319;DHT22;31057;48.498;32.260;2023-06-19T09:07:25;26.50;99.90
45319;DHT22;31057;48.498;32.260;2023-06-19T09:09:27;26.30;99.90
45319;DHT22;31057;48.498;32.260;2023-06-19T09:11:29;26.60;99.90
45319;DHT22;31057;48.498;32.260;2023-06-19T09:13:31;26.60;99.90
45319;DHT22;31057;48.498;32.260;2023-06-19T09:15:36;26.50;99.90
45319;DHT22;31057;48.498;32.260;2023-06-19T09:17:38;26.20;99.90
45319;DHT22;31057;48.498;32.260;2023-06-19T09:19:47;25.80;99.90
45319;DHT22;31057;48.498;32.260;2023-06-19T09:21:49;26.00;99.90
45319;DHT22;31057;48.498;32.260;2023-06-19T09:23:51;26.50;99.90
45319;DHT22;31057;48.498;32.260;2023-06-19T09:25:53;26.40;99.90
45319;DHT22;31057;48.498;32.260;2023-06-19T09:27:56;26.40;99.90
45319;DHT22;31057;48.498;32.260;2023-06-19T09:29:58;26.50;99.90
45319;DHT22;31057;48.498;32.260;2023-06-19T09:32:00;26.90;99.90
45319;DHT22;31057;48.498;32.260;2023-06-19T09:34:02;26.80;99.90
45319;DHT22;31057;48.498;32.260;2023-06-19T09:36:05;26.30;99.90
45319;DHT22;31057;48.498;32.260;2023-06-19T09:38:07;26.60;99.90
45319;DHT22;31057;48.498;32.260;2023-06-19T09:40:09;26.80;99.90
45319;DHT22;31057;48.498;32.260;2023-06-19T09:42:13;26.70;99.90
45319;DHT22;31057;48.498;32.260;2023-06-19T09:44:17;26.80;99.90
45319;DHT22;31057;48.498;32.260;2023-06-19T09:46:25;26.50;99.90
45319;DHT22;31057;48.498;32.260;2023-06-19T09:48:29;26.20;99.90
45319;DHT22;31057;48.498;32.260;2023-06-19T09:50:32;26.50;99.90
45319;DHT22;31057;48.498;32.260;2023-06-19T09:52:35;26.20;99.90
45319;DHT22;31057;48.498;32.260;2023-06-19T09:54:37;26.10;99.90
45319;DHT22;31057;48.498;32.260;2023-06-19T09:56:39;26.10;99.90
45319;DHT22;31057;48.498;32.260;2023-06-19T09:58:42;26.00;99.90
45319;DHT22;31057;48.498;32.260;2023-06-19T10:00:44;26.10;99.90
45319;DHT22;31057;48.498;32.260;2023-06-19T10:02:46;26.60;99.90
45319;DHT22;31057;48.498;32.260;2023-06-19T10:04:55;26.60;99.90
45319;DHT22;31057;48.498;32.260;2023-06-19T10:06:57;27.00;99.90
45319;DHT22;31057;48.498;32.260;2023-06-19T10:09:06;26.70;99.90
45319;DHT22;31057;48.498;32.260;2023-06-19T10:11:12;26.70;99.90
45319;DHT22;31057;48.498;32.260;2023-06-19T10:13:15;26.70;99.90
45319;DHT22;31057;48.498;32.260;2023-06-19T10:15:18;26.80;99.90
45319;DHT22;31057;48.498;32.260;2023-06-19T10:17:20;26.50;99.90
45319;DHT22;31057;48.498;32.260;2023-06-19T10:19:22;26.40;99.90
45319;DHT22;31057;48.498;32.260;2023-06-19T10:21:24;26.40;99.90
45319;DHT22;31057;48.498;32.260;2023-06-19T10:23:25;26.60;99.90
45319;DHT22;31057;48.498;32.260;2023-06-19T10:25:31;26.80;99.90
45319;DHT22;31057;48.498;32.260;2023-06-19T10:27:34;26.60;99.90
45319;DHT22;31057;48.498;32.260;2023-06-19T10:29:39;26.50;99.90
45319;DHT22;31057;48.498;32.260;2023-06-19T10:31:43;27.00;99.90
45319;DHT22;31057;48.498;32.260;2023-06-19T10:33:46;27.00;99.90
45319;DHT22;31057;48.498;32.260;2023-06-19T10:35:48;27.10;99.90
45319;DHT22;31057;48.498;32.260;2023-06-19T10:37:50;26.50;99.90
45319;DHT22;31057;48.498;32.260;2023-06-19T10:39:52;26.80;99.90
45319;DHT22;31057;48.498;32.260;2023-06-19T10:41:53;26.90;99.90
45319;DHT22;31057;48.498;32.260;2023-06-19T10:43:56;26.70;99.90
45319;DHT22;31057;48.498;32.260;2023-06-19T10:45:58;27.00;99.90
45319;DHT22;31057;48.498;32.260;2023-06-19T10:48:04;27.10;99.90
45319;DHT22;31057;48.498;32.260;2023-06-19T10:50:10;26.90;99.90
45319;DHT22;31057;48.498;32.260;2023-06-19T10:52:12;26.90;99.90
45319;DHT22;31057;48.498;32.260;2023-06-19T10:54:14;26.50;99.90
45319;DHT22;31057;48.498;32.260;2023-06-19T10:56:16;26.70;99.90
45319;DHT22;31057;48.498;32.260;2023-06-19T10:58:22;27.10;99.90
45319;DHT22;31057;48.498;32.260;2023-06-19T11:02:26;26.60;99.90
45319;DHT22;31057;48.498;32.260;2023-06-19T11:04:28;27.00;99.90
45319;DHT22;31057;48.498;32.260;2023-06-19T11:06:30;26.80;99.90
45319;DHT22;31057;48.498;32.260;2023-06-19T11:08:32;26.70;99.90
45319;DHT22;31057;48.498;32.260;2023-06-19T11:10:35;27.20;99.90
45319;DHT22;31057;48.498;32.260;2023-06-19T11:12:37;27.20;99.70
45319;DHT22;31057;48.498;32.260;2023-06-19T11:14:39;27.00;99.90
45319;DHT22;31057;48.498;32.260;2023-06-19T11:16:42;27.20;99.90
45319;DHT22;31057;48.498;32.260;2023-06-19T11:18:44;27.80;99.90
45319;DHT22;31057;48.498;32.260;2023-06-19T11:20:47;27.80;99.90
45319;DHT22;31057;48.498;32.260;2023-06-19T11:22:53;27.70;99.90
45319;DHT22;31057;48.498;32.260;2023-06-19T11:24:56;27.40;99.90
45319;DHT22;31057;48.498;32.260;2023-06-19T11:27:03;27.40;99.90
45319;DHT22;31057;48.498;32.260;2023-06-19T11:31:17;27.60;99.20
45319;DHT22;31057;48.498;32.260;2023-06-19T11:33:25;27.70;99.90
45319;DHT22;31057;48.498;32.260;2023-06-19T11:35:36;27.70;99.60
45319;DHT22;31057;48.498;32.260;2023-06-19T11:37:42;27.20;97.70
45319;DHT22;31057;48.498;32.260;2023-06-19T11:39:44;27.40;98.20
45319;DHT22;31057;48.498;32.260;2023-06-19T11:41:47;27.40;98.60
45319;DHT22;31057;48.498;32.260;2023-06-19T11:43:49;27.30;97.70
45319;DHT22;31057;48.498;32.260;2023-06-19T11:45:50;27.20;98.40
45319;DHT22;31057;48.498;32.260;2023-06-19T11:47:54;27.80;99.90
45319;DHT22;31057;48.498;32.260;2023-06-19T11:49:56;28.30;99.70
45319;DHT22;31057;48.498;32.260;2023-06-19T11:51:58;28.00;98.50
45319;DHT22;31057;48.498;32.260;2023-06-19T11:53:59;27.40;96.50
45319;DHT22;31057;48.498;32.260;2023-06-19T11:56:01;27.00;95.90
45319;DHT22;31057;48.498;32.260;2023-06-19T11:58:03;27.00;94.70
45319;DHT22;31057;48.498;32.260;2023-06-19T12:00:12;27.30;96.50
45319;DHT22;31057;48.498;32.260;2023-06-19T12:02:14;27.40;94.90
45319;DHT22;31057;48.498;32.260;2023-06-19T12:04:16;27.00;95.40
45319;DHT22;31057;48.498;32.260;2023-06-19T12:06:18;27.00;94.70
45319;DHT22;31057;48.498;32.260;2023-06-19T12:08:20;26.70;94.40
45319;DHT22;31057;48.498;32.260;2023-06-19T12:10:22;27.20;95.20
45319;DHT22;31057;48.498;32.260;2023-06-19T12:12:24;27.40;94.60
45319;DHT22;31057;48.498;32.260;2023-06-19T12:14:27;27.80;94.50
45319;DHT22;31057;48.498;32.260;2023-06-19T12:16:29;27.80;93.60
45319;DHT22;31057;48.498;32.260;2023-06-19T12:18:31;28.20;94.60
45319;DHT22;31057;48.498;32.260;2023-06-19T12:20:33;28.30;94.30
45319;DHT22;31057;48.498;32.260;2023-06-19T12:22:35;28.20;95.00
45319;DHT22;31057;48.498;32.260;2023-06-19T12:24:37;28.20;95.00
45319;DHT22;31057;48.498;32.260;2023-06-19T12:26:39;28.10;95.60
45319;DHT22;31057;48.498;32.260;2023-06-19T12:28:41;27.90;96.30
45319;DHT22;31057;48.498;32.260;2023-06-19T12:30:43;27.90;97.10
45319;DHT22;31057;48.498;32.260;2023-06-19T12:32:45;28.00;96.10
45319;DHT22;31057;48.498;32.260;2023-06-19T12:34:51;28.20;97.50
45319;DHT22;31057;48.498;32.260;2023-06-19T12:36:55;27.90;96.60
45319;DHT22;31057;48.498;32.260;2023-06-19T12:38:59;27.80;96.30
45319;DHT22;31057;48.498;32.260;2023-06-19T12:41:01;27.90;97.30
45319;DHT22;31057;48.498;32.260;2023-06-19T12:43:03;28.50;96.50
45319;DHT22;31057;48.498;32.260;2023-06-19T12:45:05;28.10;96.00
45319;DHT22;31057;48.498;32.260;2023-06-19T12:47:07;28.30;95.80